Time;durP1;ratioP1;P1;durP2;ratioP2;P2;SDS_P1;SDS_P2;PMS_P1;PMS_P2;Temp;Humidity;BMP_temperature;BMP_pressure;BME280_temperature;BME280_humidity;BME280_pressure;Samples;Min_cycle;Max_cycle;Signal;HPM_P1;HPM_P2
2021/03/20 00:00:39;;;;;;;6.37;4.80;;;1.70;99.90;;;;;;5089343;28;20460;-68
2021/03/20 00:03:06;;;;;;;4.13;3.73;;;1.80;99.90;;;;;;5078231;28;20443;-68
2021/03/20 00:05:33;;;;;;;9.23;4.57;;;1.80;99.90;;;;;;5073089;28;20531;-68
2021/03/20 00:08:00;;;;;;;6.63;4.93;;;1.60;99.90;;;;;;5072916;28;20445;-68
2021/03/20 00:10:27;;;;;;;6.20;4.47;;;1.60;1.00;;;;;;5091121;28;21014;-68
2021/03/20 00:12:54;;;;;;;7.40;4.60;;;1.70;99.90;;;;;;5092466;28;20483;-68
2021/03/20 00:15:24;;;;;;;9.57;4.80;;;1.60;1.00;;;;;;5081018;28;20472;-68
2021/03/20 00:17:52;;;;;;;9.47;5.03;;;1.60;36.30;;;;;;5073417;28;20481;-68
2021/03/20 00:20:22;;;;;;;7.37;4.90;;;1.60;1.00;;;;;;5073760;28;20541;-68
2021/03/20 00:22:49;;;;;;;7.50;5.40;;;1.60;1.00;;;;;;5073683;28;20456;-68
2021/03/20 00:25:16;;;;;;;10.60;6.13;;;1.70;1.00;;;;;;5073567;28;20538;-66
2021/03/20 00:27:42;;;;;;;7.83;4.47;;;1.60;1.00;;;;;;5078071;28;20475;-66
2021/03/20 00:30:10;;;;;;;9.20;4.73;;;1.50;99.90;;;;;;5092816;28;20455;-67
2021/03/20 00:32:37;;;;;;;7.87;6.10;;;1.40;99.90;;;;;;5092166;28;20535;-67
2021/03/20 00:35:05;;;;;;;7.30;4.67;;;1.20;1.00;;;;;;5082633;28;20463;-67
2021/03/20 00:37:32;;;;;;;5.50;4.17;;;1.20;1.00;;;;;;5077429;28;21075;-67
2021/03/20 00:39:58;;;;;;;7.60;5.27;;;1.40;99.90;;;;;;5075820;28;20574;-67
2021/03/20 00:42:25;;;;;;;6.53;4.77;;;1.40;99.90;;;;;;5072882;28;20828;-67
2021/03/20 00:44:51;;;;;;;7.20;5.10;;;1.20;1.00;;;;;;5071836;28;20479;-67
2021/03/20 00:47:18;;;;;;;7.60;5.00;;;1.10;99.90;;;;;;5082815;28;20535;-67
2021/03/20 00:49:44;;;;;;;8.33;5.30;;;1.10;99.90;;;;;;5084414;28;20536;-67
2021/03/20 00:52:12;;;;;;;8.37;5.00;;;1.10;99.90;;;;;;5091375;28;20798;-67
2021/03/20 00:54:38;;;;;;;7.27;4.87;;;1.00;1.00;;;;;;5077241;28;20811;-67
2021/03/20 00:57:05;;;;;;;6.90;4.20;;;1.60;1.00;;;;;;5080335;28;20482;-67
2021/03/20 00:59:32;;;;;;;4.80;4.17;;;0.70;1.00;;;;;;5091557;28;20513;-67
2021/03/20 01:01:58;;;;;;;7.43;6.07;;;1.10;1.00;;;;;;5078300;28;20810;-67
2021/03/20 01:04:25;;;;;;;8.63;5.00;;;1.00;1.00;;;;;;5076627;28;20453;-67
2021/03/20 01:06:51;;;;;;;5.73;4.77;;;1.00;1.00;;;;;;5076761;28;20474;-67
2021/03/20 01:09:19;;;;;;;8.10;4.77;;;1.00;1.00;;;;;;5091196;28;20520;-67
2021/03/20 01:11:45;;;;;;;8.97;4.50;;;0.70;1.00;;;;;;5090516;28;20484;-67
2021/03/20 01:14:12;;;;;;;10.50;6.20;;;1.40;1.00;;;;;;5078918;28;20479;-67
2021/03/20 01:16:38;;;;;;;8.83;4.63;;;0.80;1.00;;;;;;5074967;28;20461;-67
2021/03/20 01:19:05;;;;;;;7.83;4.20;;;0.80;1.00;;;;;;5079023;28;20577;-67
2021/03/20 01:21:31;;;;;;;7.37;4.70;;;0.90;1.00;;;;;;5086370;28;20833;-67
2021/03/20 01:23:58;;;;;;;8.73;5.10;;;0.80;1.00;;;;;;5090975;28;20462;-67
2021/03/20 01:26:25;;;;;;;7.23;4.23;;;1.20;1.00;;;;;;5093154;28;20497;-67
2021/03/20 01:28:51;;;;;;;6.50;4.47;;;1.30;99.90;;;;;;5091837;28;20465;-67
2021/03/20 01:31:18;;;;;;;9.00;4.77;;;1.10;99.90;;;;;;5073606;28;20888;-67
2021/03/20 01:33:44;;;;;;;6.07;4.37;;;1.20;99.90;;;;;;5071764;28;20525;-68
2021/03/20 01:36:11;;;;;;;7.17;4.27;;;1.30;99.90;;;;;;5076067;28;20446;-68
2021/03/20 01:38:38;;;;;;;7.60;5.90;;;1.40;99.90;;;;;;5075665;28;20506;-68
2021/03/20 01:41:08;;;;;;;8.43;5.27;;;1.70;1.00;;;;;;5071042;28;20474;-68
2021/03/20 01:43:36;;;;;;;8.90;5.10;;;1.90;99.90;;;;;;5085165;28;20452;-68
2021/03/20 01:46:37;;;;;;;9.00;5.17;;;1.90;1.00;;;;;;5088501;28;20467;-68
2021/03/20 01:49:10;;;;;;;9.10;4.63;;;1.80;1.00;;;;;;5070904;28;20449;-68
2021/03/20 01:51:37;;;;;;;6.60;5.20;;;2.00;99.90;;;;;;5088635;28;20437;-68
2021/03/20 01:54:04;;;;;;;6.37;5.17;;;2.00;99.90;;;;;;5090527;28;20622;-67
2021/03/20 01:56:37;;;;;;;6.17;5.23;;;2.10;1.00;;;;;;5076308;28;20552;-67
2021/03/20 01:59:04;;;;;;;8.10;6.00;;;1.90;92.20;;;;;;5084296;28;20527;-68
2021/03/20 02:01:32;;;;;;;8.60;5.10;;;1.90;1.00;;;;;;5084336;28;20480;-67
2021/03/20 02:04:00;;;;;;;6.23;4.50;;;2.00;99.90;;;;;;5078337;28;20531;-68
2021/03/20 02:06:27;;;;;;;8.90;5.00;;;2.10;1.00;;;;;;5077705;28;20802;-68
2021/03/20 02:08:58;;;;;;;8.70;5.23;;;2.10;99.90;;;;;;5076863;28;20517;-68
2021/03/20 02:11:28;;;;;;;6.50;4.60;;;2.30;1.00;;;;;;5075163;28;20991;-68
2021/03/20 02:14:02;;;;;;;8.90;5.20;;;2.40;1.00;;;;;;5070233;28;20848;-68
2021/03/20 02:16:37;;;;;;;6.90;4.80;;;2.50;99.90;;;;;;5081914;28;20532;-68
2021/03/20 02:19:15;;;;;;;6.37;4.70;;;2.50;1.00;;;;;;5088858;28;20471;-67
2021/03/20 02:21:45;;;;;;;6.50;4.40;;;2.40;1.00;;;;;;5088629;28;20459;-68
2021/03/20 02:24:52;;;;;;;6.97;4.60;;;2.40;1.00;;;;;;5077999;28;20480;-68
2021/03/20 02:28:04;;;;;;;5.67;4.67;;;2.60;99.90;;;;;;5075917;28;20546;-67
2021/03/20 02:31:15;;;;;;;6.67;4.73;;;2.60;99.90;;;;;;5081896;28;20941;-67
2021/03/20 02:33:51;;;;;;;6.57;4.33;;;2.70;1.00;;;;;;5068139;28;20437;-68
2021/03/20 02:36:28;;;;;;;5.93;4.47;;;2.70;1.00;;;;;;5091582;28;20444;-67
2021/03/20 02:39:02;;;;;;;6.83;4.80;;;2.70;99.90;;;;;;5074082;28;20552;-68
2021/03/20 02:41:33;;;;;;;6.10;5.00;;;2.80;99.90;;;;;;5075885;28;20783;-68
2021/03/20 02:44:06;;;;;;;4.83;4.33;;;2.80;99.90;;;;;;5080315;28;20459;-67
2021/03/20 02:46:37;;;;;;;7.57;4.30;;;2.80;99.90;;;;;;5091194;28;20558;-67
2021/03/20 02:49:13;;;;;;;6.90;4.70;;;2.80;99.90;;;;;;5076163;28;20450;-68
2021/03/20 02:51:48;;;;;;;7.63;5.50;;;2.80;85.60;;;;;;5095582;28;21217;-67
2021/03/20 02:54:19;;;;;;;6.20;4.17;;;2.70;99.90;;;;;;5095786;28;20453;-68
2021/03/20 02:56:53;;;;;;;7.13;4.23;;;2.70;99.90;;;;;;5085441;28;20468;-67
2021/03/20 02:59:24;;;;;;;6.90;4.67;;;2.80;1.00;;;;;;5094235;28;20900;-66
2021/03/20 03:01:53;;;;;;;5.33;4.20;;;2.80;1.00;;;;;;5076822;28;20571;-66
2021/03/20 03:04:24;;;;;;;4.53;4.00;;;2.90;1.00;;;;;;5083907;28;20479;-66
2021/03/20 03:06:58;;;;;;;4.47;3.60;;;2.80;1.00;;;;;;5091192;28;20469;-67
2021/03/20 03:09:28;;;;;;;7.17;5.27;;;2.80;1.00;;;;;;5094676;28;20470;-67
2021/03/20 03:11:58;;;;;;;8.87;5.07;;;2.80;1.30;;;;;;5091479;28;20480;-66
2021/03/20 03:14:29;;;;;;;5.47;4.40;;;2.80;37.60;;;;;;5081469;28;20471;-66
2021/03/20 03:17:01;;;;;;;9.07;5.73;;;2.80;37.70;;;;;;5074551;28;20476;-66
2021/03/20 03:19:32;;;;;;;5.40;4.07;;;2.70;99.90;;;;;;5093592;28;20470;-67
2021/03/20 03:22:01;;;;;;;6.00;4.40;;;2.70;61.70;;;;;;5093730;28;20523;-68
2021/03/20 03:24:29;;;;;;;5.93;4.83;;;2.70;1.00;;;;;;5081577;28;20483;-67
2021/03/20 03:27:02;;;;;;;7.27;4.60;;;2.70;97.40;;;;;;5086243;28;20492;-68
2021/03/20 03:29:31;;;;;;;6.67;5.07;;;2.60;1.00;;;;;;5091270;28;20523;-68
2021/03/20 03:32:08;;;;;;;7.53;4.77;;;2.70;99.90;;;;;;5073586;28;20453;-67
2021/03/20 03:34:44;;;;;;;8.37;5.47;;;2.60;1.00;;;;;;5082906;28;20919;-67
2021/03/20 03:37:14;;;;;;;7.73;5.20;;;2.50;99.90;;;;;;5081091;28;20860;-67
2021/03/20 03:39:47;;;;;;;5.60;4.53;;;2.60;99.90;;;;;;5089475;28;20538;-67
2021/03/20 03:42:16;;;;;;;7.53;5.00;;;2.60;1.00;;;;;;5089433;28;21007;-68
2021/03/20 03:44:44;;;;;;;5.47;4.90;;;2.50;99.90;;;;;;5093816;28;20469;-67
2021/03/20 03:47:12;;;;;;;6.13;4.47;;;2.50;1.00;;;;;;5090401;28;20528;-67
2021/03/20 03:49:40;;;;;;;8.60;5.43;;;2.70;40.00;;;;;;5085455;28;20571;-67
2021/03/20 03:52:06;;;;;;;6.93;5.53;;;2.90;1.00;;;;;;5074414;28;20441;-66
2021/03/20 03:54:34;;;;;;;7.27;4.63;;;2.70;1.00;;;;;;5081341;28;20853;-67
2021/03/20 03:57:25;;;;;;;5.57;4.80;;;2.80;1.00;;;;;;5087441;28;20491;-67
2021/03/20 04:00:06;;;;;;;5.37;4.47;;;2.70;99.90;;;;;;5078747;28;20517;-68
2021/03/20 04:02:52;;;;;;;7.10;5.80;;;2.60;1.00;;;;;;5077309;28;20477;-66
2021/03/20 04:05:26;;;;;;;5.67;4.50;;;2.60;1.00;;;;;;5082557;28;20467;-67
2021/03/20 04:08:02;;;;;;;7.20;5.53;;;2.70;1.00;;;;;;5089880;28;20445;-67
2021/03/20 04:10:34;;;;;;;8.83;5.20;;;2.80;99.90;;;;;;5089222;28;20440;-67
2021/03/20 04:13:08;;;;;;;6.23;5.17;;;2.60;1.00;;;;;;5078300;28;20824;-67
2021/03/20 04:15:47;;;;;;;6.60;5.33;;;2.80;1.00;;;;;;5079389;28;20483;-67
2021/03/20 04:18:22;;;;;;;6.80;4.40;;;2.70;1.00;;;;;;5092686;28;20999;-67
2021/03/20 04:20:56;;;;;;;8.13;5.30;;;2.70;99.90;;;;;;5092244;28;20475;-67
2021/03/20 04:23:28;;;;;;;6.50;4.53;;;2.90;1.00;;;;;;5082933;28;21013;-67
2021/03/20 04:25:59;;;;;;;6.30;4.90;;;2.70;99.90;;;;;;5092248;28;20547;-67
2021/03/20 04:28:34;;;;;;;5.60;4.00;;;2.70;99.90;;;;;;5072850;28;20973;-67
2021/03/20 04:31:10;;;;;;;5.90;4.03;;;2.80;99.90;;;;;;5085675;28;20527;-67
2021/03/20 04:33:44;;;;;;;9.10;5.53;;;2.80;1.00;;;;;;5079621;28;20474;-68
2021/03/20 04:36:16;;;;;;;5.63;4.30;;;2.80;99.90;;;;;;5087619;28;20477;-68
2021/03/20 04:38:45;;;;;;;6.93;4.13;;;2.70;77.40;;;;;;5080072;28;20998;-68
2021/03/20 04:41:13;;;;;;;5.80;5.20;;;2.90;99.90;;;;;;5072144;28;20541;-67
2021/03/20 04:43:40;;;;;;;5.80;5.03;;;2.90;99.90;;;;;;5075326;28;20960;-68
2021/03/20 04:46:13;;;;;;;6.70;5.43;;;2.80;1.00;;;;;;5079873;28;20539;-68
2021/03/20 04:48:43;;;;;;;6.23;5.63;;;2.80;12.20;;;;;;5080226;28;21073;-68
2021/03/20 04:51:25;;;;;;;5.40;4.50;;;2.60;1.00;;;;;;5091312;28;20643;-68
2021/03/20 04:53:52;;;;;;;8.10;4.73;;;2.50;99.90;;;;;;5091960;28;20437;-68
2021/03/20 04:56:21;;;;;;;6.30;5.00;;;2.60;99.90;;;;;;5080309;28;20493;-68
2021/03/20 04:58:52;;;;;;;5.13;4.47;;;2.70;99.90;;;;;;5092654;28;21063;-68
2021/03/20 05:01:26;;;;;;;6.40;4.90;;;2.50;1.00;;;;;;5090445;28;20445;-69
2021/03/20 05:03:59;;;;;;;7.43;5.20;;;2.50;99.90;;;;;;5082994;28;20472;-67
2021/03/20 05:06:27;;;;;;;6.80;4.33;;;2.50;99.90;;;;;;5072459;28;20524;-68
2021/03/20 05:08:56;;;;;;;7.27;5.60;;;2.60;99.90;;;;;;5073249;28;20919;-69
2021/03/20 05:11:31;;;;;;;5.63;4.20;;;2.40;1.00;;;;;;5072035;28;20536;-68
2021/03/20 05:14:04;;;;;;;6.70;4.97;;;2.20;1.00;;;;;;5071712;28;20531;-69
2021/03/20 05:16:37;;;;;;;6.37;4.93;;;2.10;99.90;;;;;;5072691;28;20560;-69
2021/03/20 05:19:05;;;;;;;6.50;4.60;;;2.30;20.60;;;;;;5071753;28;20990;-68
2021/03/20 05:21:34;;;;;;;7.03;4.70;;;2.40;1.00;;;;;;5086128;28;20532;-68
2021/03/20 05:24:01;;;;;;;5.70;4.50;;;2.30;1.00;;;;;;5080030;28;20444;-69
2021/03/20 05:26:28;;;;;;;10.13;5.50;;;2.30;1.00;;;;;;5077778;28;20503;-68
2021/03/20 05:28:55;;;;;;;7.33;4.63;;;2.30;99.90;;;;;;5071478;28;20889;-68
2021/03/20 05:31:21;;;;;;;7.30;4.50;;;2.20;1.00;;;;;;5076307;28;20451;-69
2021/03/20 05:33:50;;;;;;;8.87;5.40;;;2.30;1.00;;;;;;5029089;28;20447;-69
2021/03/20 05:36:18;;;;;;;8.43;5.20;;;2.20;1.00;;;;;;5072025;28;20531;-69
2021/03/20 05:38:47;;;;;;;8.40;4.87;;;2.20;99.90;;;;;;5085946;28;20975;-66
2021/03/20 05:41:34;;;;;;;5.60;4.30;;;2.20;1.00;;;;;;5074564;28;20528;-69
2021/03/20 05:44:11;;;;;;;5.90;4.90;;;2.30;1.00;;;;;;5071103;28;20452;-72
2021/03/20 05:46:43;;;;;;;6.60;4.80;;;2.10;28.90;;;;;;5080256;28;20515;-72
2021/03/20 05:49:40;;;;;;;6.70;5.50;;;2.00;99.90;;;;;;5073327;28;20481;-72
2021/03/20 05:52:28;;;;;;;7.87;6.10;;;1.90;99.90;;;;;;5070412;28;20962;-71
2021/03/20 05:55:27;;;;;;;6.13;4.60;;;2.20;1.00;;;;;;5075640;28;20477;-71
2021/03/20 05:58:03;;;;;;;5.57;4.83;;;2.10;99.90;;;;;;5050046;28;20511;-70
2021/03/20 06:00:40;;;;;;;7.77;5.37;;;2.20;99.90;;;;;;5088729;28;20448;-70
2021/03/20 06:03:30;;;;;;;6.23;5.00;;;2.80;99.90;;;;;;5083563;28;20973;-70
2021/03/20 06:06:01;;;;;;;7.00;5.77;;;2.50;99.90;;;;;;5087098;28;20519;-70
2021/03/20 06:08:56;;;;;;;8.33;5.70;;;3.00;13.30;;;;;;5087047;28;20441;-76
2021/03/20 06:11:40;;;;;;;7.70;4.77;;;3.10;1.00;;;;;;5064011;28;20484;-79
2021/03/20 06:14:28;;;;;;;5.60;4.33;;;2.80;1.00;;;;;;5071142;28;20447;-72
2021/03/20 06:17:10;;;;;;;6.30;4.73;;;2.40;1.00;;;;;;5078066;28;20472;-72
2021/03/20 06:20:12;;;;;;;5.20;4.60;;;2.10;1.00;;;;;;5090642;28;21010;-72
2021/03/20 06:23:03;;;;;;;5.37;3.90;;;2.30;99.90;;;;;;5058045;28;20871;-73
2021/03/20 06:25:58;;;;;;;6.90;4.50;;;2.20;99.90;;;;;;5071342;28;20901;-71
2021/03/20 06:28:30;;;;;;;5.60;4.63;;;2.30;1.00;;;;;;5070759;28;20519;-74
2021/03/20 06:31:01;;;;;;;4.70;3.60;;;2.40;1.00;;;;;;5072170;28;20461;-75
2021/03/20 06:33:31;;;;;;;8.80;4.50;;;2.30;1.00;;;;;;5089191;28;20778;-70
2021/03/20 06:36:01;;;;;;;5.87;4.50;;;2.30;1.00;;;;;;5076957;28;20443;-76
2021/03/20 06:38:34;;;;;;;5.97;4.10;;;2.50;99.90;;;;;;5080329;28;20478;-72
2021/03/20 06:41:14;;;;;;;4.60;3.70;;;2.40;99.90;;;;;;5086382;28;20520;-70
2021/03/20 06:43:49;;;;;;;5.07;4.13;;;2.20;1.00;;;;;;5070976;28;20533;-70
2021/03/20 06:46:19;;;;;;;6.27;3.60;;;2.80;1.00;;;;;;5077455;28;20515;-69
2021/03/20 06:48:47;;;;;;;6.93;3.83;;;2.30;99.90;;;;;;5078025;28;20524;-69
2021/03/20 06:51:14;;;;;;;4.00;3.10;;;2.20;99.90;;;;;;5072728;28;21077;-71
2021/03/20 06:53:46;;;;;;;4.17;3.70;;;2.20;1.00;;;;;;5084187;28;20455;-69
2021/03/20 06:56:14;;;;;;;4.60;3.30;;;2.30;1.00;;;;;;5071623;28;20461;-71
2021/03/20 06:58:42;;;;;;;3.57;3.03;;;2.20;1.00;;;;;;5076577;28;20483;-71
2021/03/20 07:01:40;;;;;;;6.10;3.67;;;2.20;1.00;;;;;;5071539;28;20487;-72
2021/03/20 07:04:22;;;;;;;3.77;3.10;;;2.20;99.90;;;;;;5070419;28;20430;-73
2021/03/20 07:07:24;;;;;;;27.97;11.60;;;2.40;99.90;;;;;;5072005;28;20529;-72
2021/03/20 07:09:53;;;;;;;3.10;2.80;;;2.30;99.90;;;;;;5071239;28;20476;-70
2021/03/20 07:12:21;;;;;;;5.87;3.10;;;2.40;99.90;;;;;;5077308;28;20444;-70
2021/03/20 07:14:52;;;;;;;4.37;3.10;;;2.30;6.50;;;;;;5088474;28;20483;-70
2021/03/20 07:17:33;;;;;;;11.00;4.40;;;2.20;80.40;;;;;;5074542;28;20444;-70
2021/03/20 07:20:05;;;;;;;6.70;3.37;;;2.30;30.70;;;;;;5072970;28;20513;-70
2021/03/20 07:22:36;;;;;;;6.73;2.70;;;2.30;16.70;;;;;;5078428;28;20464;-71
2021/03/20 07:25:27;;;;;;;2.90;2.30;;;2.50;9.40;;;;;;5073922;28;20937;-76
2021/03/20 07:28:04;;;;;;;5.57;3.07;;;2.20;1.00;;;;;;5074751;28;20834;-70
2021/03/20 07:30:36;;;;;;;3.10;2.80;;;2.30;1.00;;;;;;5073804;28;20472;-71
2021/03/20 07:33:21;;;;;;;7.50;3.00;;;2.40;1.00;;;;;;5076541;28;20530;-70
2021/03/20 07:35:48;;;;;;;3.47;3.10;;;2.50;1.00;;;;;;5076552;28;20479;-70
2021/03/20 07:38:21;;;;;;;4.17;2.90;;;2.40;1.00;;;;;;5092547;28;20476;-71
2021/03/20 07:40:48;;;;;;;4.90;3.03;;;2.60;1.00;;;;;;5077920;28;20895;-72
2021/03/20 07:43:18;;;;;;;2.60;2.33;;;2.50;1.00;;;;;;5081722;28;20494;-72
2021/03/20 07:45:48;;;;;;;2.83;2.37;;;2.70;1.00;;;;;;5088650;28;20441;-74
2021/03/20 07:48:26;;;;;;;4.20;3.70;;;2.70;1.00;;;;;;5081518;28;20447;-72
2021/03/20 07:51:03;;;;;;;3.13;2.50;;;3.00;1.00;;;;;;5093437;28;20429;-72
2021/03/20 07:53:30;;;;;;;3.63;2.70;;;3.10;1.00;;;;;;5094397;28;20475;-73
2021/03/20 07:56:04;;;;;;;4.03;3.60;;;3.10;1.00;;;;;;5086753;28;20473;-71
2021/03/20 07:58:41;;;;;;;3.33;2.50;;;2.90;1.00;;;;;;5078066;28;20473;-70
2021/03/20 08:01:15;;;;;;;3.80;3.50;;;3.00;1.00;;;;;;5073883;28;20491;-70
2021/03/20 08:03:53;;;;;;;4.43;2.60;;;3.00;1.00;;;;;;5078878;28;20798;-69
2021/03/20 08:06:22;;;;;;;3.43;3.13;;;3.20;99.90;;;;;;5080935;28;20449;-69
2021/03/20 08:08:49;;;;;;;3.80;2.90;;;3.00;99.90;;;;;;5080683;28;20777;-69
2021/03/20 08:11:32;;;;;;;4.43;3.40;;;3.20;99.90;;;;;;5090159;28;20465;-69
2021/03/20 08:14:04;;;;;;;3.07;2.77;;;3.00;99.90;;;;;;5092641;28;20520;-71
2021/03/20 08:16:32;;;;;;;9.13;2.80;;;3.00;99.90;;;;;;5081024;28;20469;-71
2021/03/20 08:18:59;;;;;;;4.20;2.97;;;3.00;99.90;;;;;;5090768;28;21064;-76
2021/03/20 08:22:04;;;;;;;3.10;2.67;;;2.90;99.90;;;;;;5099677;28;20472;-75
2021/03/20 08:25:02;;;;;;;2.73;2.33;;;2.70;99.90;;;;;;5056845;28;20448;-76
2021/03/20 08:27:39;;;;;;;3.77;2.53;;;2.90;99.90;;;;;;5106096;28;20436;-76
2021/03/20 08:30:23;;;;;;;4.00;2.60;;;2.70;99.90;;;;;;5090456;28;20513;-77
2021/03/20 08:33:10;;;;;;;3.40;2.70;;;2.80;99.90;;;;;;5100734;28;20435;-76
2021/03/20 08:35:44;;;;;;;2.83;2.10;;;2.70;99.90;;;;;;5093172;28;20440;-73
2021/03/20 08:38:28;;;;;;;3.50;2.40;;;2.70;99.90;;;;;;5085889;28;20448;-74
2021/03/20 08:41:00;;;;;;;3.93;2.47;;;2.70;99.90;;;;;;5082474;28;21031;-72
2021/03/20 08:43:49;;;;;;;3.47;2.60;;;2.70;99.90;;;;;;5085078;28;20453;-73
2021/03/20 08:46:36;;;;;;;3.13;2.33;;;2.80;99.90;;;;;;5079230;28;20445;-74
2021/03/20 08:49:12;;;;;;;5.00;2.50;;;3.10;99.90;;;;;;5088280;28;20449;-75
2021/03/20 08:51:45;;;;;;;6.27;2.60;;;3.20;99.90;;;;;;5073242;28;20477;-74
2021/03/20 08:54:29;;;;;;;5.30;1.90;;;2.80;99.90;;;;;;5078341;28;20437;-74
2021/03/20 08:57:06;;;;;;;3.40;2.63;;;2.70;99.90;;;;;;5074056;28;20443;-74
2021/03/20 08:59:35;;;;;;;3.60;1.70;;;2.80;99.90;;;;;;5092288;28;20553;-74
2021/03/20 09:02:09;;;;;;;2.50;2.30;;;3.00;99.90;;;;;;5081018;28;20531;-72
2021/03/20 09:04:37;;;;;;;2.20;2.00;;;2.90;99.90;;;;;;5078038;28;20796;-73
2021/03/20 09:07:12;;;;;;;2.27;1.90;;;3.00;99.90;;;;;;5078802;28;20454;-74
2021/03/20 09:09:45;;;;;;;2.27;1.70;;;3.10;99.90;;;;;;5086040;28;20420;-73
2021/03/20 09:12:20;;;;;;;2.67;2.10;;;3.20;99.90;;;;;;5078016;28;20441;-72
2021/03/20 09:14:47;;;;;;;7.73;2.43;;;3.40;99.90;;;;;;5075789;28;20476;-74
2021/03/20 09:17:18;;;;;;;2.23;1.77;;;3.30;99.90;;;;;;5073287;28;20480;-73
2021/03/20 09:19:52;;;;;;;3.00;1.73;;;3.40;99.90;;;;;;5077503;28;20606;-74
2021/03/20 09:22:23;;;;;;;3.97;2.17;;;2.80;96.60;;;;;;5075371;28;20461;-71
2021/03/20 09:24:53;;;;;;;3.77;2.20;;;2.90;97.70;;;;;;5088196;28;20977;-71
2021/03/20 09:27:52;;;;;;;4.13;2.40;;;3.00;99.90;;;;;;5079038;28;20924;-71
2021/03/20 09:30:27;;;;;;;3.30;2.17;;;3.40;99.90;;;;;;5071463;28;20485;-71
2021/03/20 09:32:54;;;;;;;4.07;2.53;;;3.50;99.90;;;;;;5070915;28;20468;-71
2021/03/20 09:35:24;;;;;;;4.23;2.03;;;3.70;99.00;;;;;;5077213;28;20479;-72
2021/03/20 09:37:54;;;;;;;2.50;1.90;;;3.90;93.20;;;;;;5073550;28;20523;-74
2021/03/20 09:40:50;;;;;;;2.97;2.40;;;3.70;38.70;;;;;;5087905;28;20516;-72
2021/03/20 09:43:39;;;;;;;2.90;2.13;;;3.80;37.90;;;;;;5072168;28;20500;-70
2021/03/20 09:46:44;;;;;;;2.43;2.23;;;3.90;34.40;;;;;;5072011;28;20946;-71
2021/03/20 09:49:53;;;;;;;7.70;2.30;;;4.20;23.90;;;;;;5085593;28;20463;-73
2021/03/20 09:52:52;;;;;;;4.37;2.53;;;4.10;6.20;;;;;;5072100;28;20442;-74
2021/03/20 09:55:35;;;;;;;2.37;1.87;;;4.30;1.00;;;;;;5088134;28;20482;-72
2021/03/20 09:58:03;;;;;;;2.77;1.80;;;4.40;1.00;;;;;;5091028;28;20974;-72
2021/03/20 10:01:01;;;;;;;13.00;1.87;;;4.30;1.00;;;;;;5072141;28;20841;-71
2021/03/20 10:04:02;;;;;;;2.87;1.57;;;4.50;1.00;;;;;;5074207;28;20435;-71
2021/03/20 10:06:35;;;;;;;2.83;2.33;;;4.80;1.00;;;;;;5090095;28;20479;-69
2021/03/20 10:09:26;;;;;;;2.33;2.00;;;4.80;1.00;;;;;;5070952;28;20448;-73
2021/03/20 10:12:17;;;;;;;3.50;2.10;;;4.70;1.00;;;;;;5076786;28;20431;-73
2021/03/20 10:15:05;;;;;;;1.60;1.50;;;4.50;1.00;;;;;;5075317;28;20440;-72
2021/03/20 10:17:53;;;;;;;5.63;2.47;;;4.50;1.00;;;;;;5078356;28;20440;-69
2021/03/20 10:20:22;;;;;;;2.97;2.70;;;4.60;1.00;;;;;;5072574;28;20571;-69
2021/03/20 10:22:52;;;;;;;9.90;3.53;;;4.80;1.00;;;;;;5085311;28;20539;-69
2021/03/20 10:25:19;;;;;;;2.80;1.80;;;5.00;1.00;;;;;;5084184;28;20487;-70
2021/03/20 10:27:52;;;;;;;3.47;1.90;;;4.80;1.00;;;;;;5088466;28;20512;-69
2021/03/20 10:30:21;;;;;;;2.77;1.40;;;5.10;1.00;;;;;;5078172;28;20540;-69
2021/03/20 10:32:57;;;;;;;2.53;1.70;;;4.90;1.00;;;;;;5068621;28;20479;-70
2021/03/20 10:35:25;;;;;;;2.50;1.70;;;4.70;1.00;;;;;;5068683;28;20810;-70
2021/03/20 10:37:53;;;;;;;4.40;2.10;;;4.60;1.00;;;;;;5067435;28;21001;-69
2021/03/20 10:40:24;;;;;;;3.50;2.03;;;4.60;1.00;;;;;;5085161;28;20597;-70
2021/03/20 10:42:56;;;;;;;2.50;2.20;;;4.50;1.00;;;;;;5088579;28;20487;-69
2021/03/20 10:45:30;;;;;;;5.77;2.17;;;4.60;1.00;;;;;;5078830;28;20531;-69
2021/03/20 10:48:03;;;;;;;5.23;1.83;;;4.80;1.00;;;;;;5083006;28;20959;-69
2021/03/20 10:50:36;;;;;;;4.73;1.70;;;4.90;1.00;;;;;;5072312;28;20475;-70
2021/03/20 10:53:06;;;;;;;5.83;1.80;;;4.80;1.00;;;;;;5072379;28;20467;-69
2021/03/20 10:55:39;;;;;;;2.60;1.70;;;4.70;1.00;;;;;;5073354;28;20495;-70
2021/03/20 10:58:08;;;;;;;3.53;2.30;;;4.90;1.00;;;;;;5071535;28;20535;-70
2021/03/20 11:00:41;;;;;;;2.20;1.57;;;4.90;1.00;;;;;;5071957;28;20528;-69
2021/03/20 11:03:10;;;;;;;1.90;1.63;;;4.80;1.00;;;;;;5080781;28;20860;-69
2021/03/20 11:05:40;;;;;;;3.37;2.00;;;4.70;1.00;;;;;;5091732;28;21016;-69
2021/03/20 11:08:21;;;;;;;4.60;2.37;;;4.90;1.00;;;;;;5084592;28;20878;-69
2021/03/20 11:10:49;;;;;;;4.07;1.90;;;4.90;1.00;;;;;;5088584;28;20944;-68
2021/03/20 11:13:33;;;;;;;3.37;1.97;;;5.10;1.00;;;;;;5089299;28;20448;-68
2021/03/20 11:16:09;;;;;;;3.33;2.17;;;5.00;1.00;;;;;;5089311;28;20443;-68
2021/03/20 11:18:40;;;;;;;3.10;1.87;;;5.30;1.00;;;;;;5080802;28;20511;-69
2021/03/20 11:21:20;;;;;;;2.17;1.97;;;5.40;1.00;;;;;;5070699;28;20436;-69
2021/03/20 11:23:54;;;;;;;2.40;1.50;;;5.20;1.00;;;;;;5082149;28;20444;-68
2021/03/20 11:26:36;;;;;;;2.47;1.97;;;5.00;1.00;;;;;;5077496;28;20487;-70
2021/03/20 11:29:05;;;;;;;5.87;2.30;;;4.90;1.00;;;;;;5082541;28;21025;-70
2021/03/20 11:31:41;;;;;;;2.37;1.83;;;4.90;1.00;;;;;;5088081;28;20952;-69
2021/03/20 11:34:09;;;;;;;2.47;1.90;;;5.20;1.00;;;;;;5089282;28;20531;-70
2021/03/20 11:36:36;;;;;;;4.37;2.30;;;5.30;1.00;;;;;;5072395;28;20542;-70
2021/03/20 11:39:07;;;;;;;2.37;1.60;;;5.40;1.00;;;;;;5085513;28;20479;-70
2021/03/20 11:41:37;;;;;;;2.93;1.93;;;5.30;1.00;;;;;;5088847;28;20479;-70
2021/03/20 11:44:10;;;;;;;3.00;2.20;;;5.20;1.00;;;;;;5080856;28;20450;-70
2021/03/20 11:46:46;;;;;;;2.93;2.00;;;5.40;1.00;;;;;;5090110;28;20464;-70
2021/03/20 11:49:24;;;;;;;2.43;2.17;;;5.30;1.00;;;;;;5088093;28;20535;-70
2021/03/20 11:51:52;;;;;;;2.80;2.53;;;5.30;1.00;;;;;;5075361;28;20524;-68
2021/03/20 11:54:30;;;;;;;2.77;2.57;;;5.50;1.00;;;;;;5070950;28;20870;-69
2021/03/20 11:57:01;;;;;;;1.97;1.80;;;5.50;1.00;;;;;;5071678;28;20480;-68
2021/03/20 11:59:37;;;;;;;5.37;2.50;;;6.00;1.00;;;;;;5079367;28;20464;-69
2021/03/20 12:02:05;;;;;;;2.40;2.20;;;6.10;1.00;;;;;;5075008;28;20514;-73
2021/03/20 12:04:33;;;;;;;2.93;1.97;;;6.10;1.00;;;;;;5084537;28;20515;-72
2021/03/20 12:07:22;;;;;;;3.43;2.20;;;6.20;1.00;;;;;;5082560;28;20440;-70
2021/03/20 12:09:49;;;;;;;3.87;2.47;;;6.30;1.00;;;;;;5086427;28;20717;-70
2021/03/20 12:12:16;;;;;;;2.93;2.47;;;6.30;1.00;;;;;;5073173;28;20520;-70
2021/03/20 12:14:44;;;;;;;3.20;2.20;;;6.80;1.00;;;;;;5073427;28;20520;-71
2021/03/20 12:17:18;;;;;;;2.50;2.30;;;6.90;1.00;;;;;;5072884;28;20863;-70
2021/03/20 12:19:57;;;;;;;3.57;2.30;;;7.00;1.00;;;;;;5073159;28;20571;-70
2021/03/20 12:22:44;;;;;;;4.90;2.37;;;7.30;1.00;;;;;;5073200;28;20921;-71
2021/03/20 12:25:25;;;;;;;2.53;2.33;;;6.80;1.00;;;;;;5080758;28;20453;-71
2021/03/20 12:27:54;;;;;;;2.37;2.17;;;6.80;1.00;;;;;;5092494;28;20523;-70
2021/03/20 12:30:28;;;;;;;4.73;3.30;;;6.60;1.00;;;;;;5093477;28;20753;-71
2021/03/20 12:33:12;;;;;;;3.43;2.27;;;6.50;1.00;;;;;;5093056;28;20558;-70
2021/03/20 12:35:39;;;;;;;2.43;2.23;;;6.50;1.00;;;;;;5093132;28;20567;-71
2021/03/20 12:38:14;;;;;;;3.47;2.23;;;6.30;1.00;;;;;;5092823;28;20475;-71
2021/03/20 12:40:44;;;;;;;3.20;2.90;;;6.60;1.00;;;;;;5092504;28;20517;-70
2021/03/20 12:43:19;;;;;;;3.97;2.90;;;6.20;1.00;;;;;;5091320;28;20936;-70
2021/03/20 12:45:46;;;;;;;4.23;2.70;;;6.40;1.00;;;;;;5090134;28;20790;-71
2021/03/20 12:48:14;;;;;;;2.57;2.20;;;6.60;1.00;;;;;;5072503;28;20476;-71
2021/03/20 12:50:40;;;;;;;4.30;2.73;;;6.40;1.00;;;;;;5072372;28;20550;-71
2021/03/20 12:53:08;;;;;;;2.50;2.30;;;6.50;1.00;;;;;;5071949;28;20469;-71
2021/03/20 12:55:35;;;;;;;2.10;2.00;;;6.60;1.00;;;;;;5072662;28;20524;-71
2021/03/20 12:58:02;;;;;;;3.63;2.67;;;6.50;1.00;;;;;;5071633;28;20448;-71
2021/03/20 13:00:30;;;;;;;2.43;2.23;;;6.60;1.00;;;;;;5071954;28;20489;-71
2021/03/20 13:02:56;;;;;;;2.27;2.07;;;6.60;1.00;;;;;;5071871;28;20449;-71
2021/03/20 13:05:26;;;;;;;6.23;2.70;;;6.80;1.00;;;;;;5084871;28;20969;-71
2021/03/20 13:07:53;;;;;;;6.20;4.00;;;6.80;1.00;;;;;;5072193;28;20594;-71
2021/03/20 13:10:21;;;;;;;3.43;2.47;;;6.60;1.00;;;;;;5071685;28;20945;-71
2021/03/20 13:12:47;;;;;;;4.73;2.47;;;6.50;1.00;;;;;;5072567;28;20453;-72
2021/03/20 13:15:14;;;;;;;2.90;2.23;;;6.50;1.00;;;;;;5071712;28;20524;-71
2021/03/20 13:17:41;;;;;;;2.40;2.20;;;7.00;1.00;;;;;;5071883;28;20453;-71
2021/03/20 13:20:09;;;;;;;3.00;2.70;;;6.20;1.00;;;;;;5070797;28;20568;-71
2021/03/20 13:22:36;;;;;;;4.30;3.07;;;6.40;1.00;;;;;;5071671;28;20495;-71
2021/03/20 13:25:03;;;;;;;4.10;2.93;;;6.60;1.00;;;;;;5078306;28;20480;-71
2021/03/20 13:27:30;;;;;;;3.57;2.40;;;6.70;1.00;;;;;;5092251;28;20559;-71
2021/03/20 13:29:57;;;;;;;3.67;2.70;;;7.20;1.00;;;;;;5091467;28;20480;-70
2021/03/20 13:32:25;;;;;;;4.53;2.83;;;7.30;1.00;;;;;;5091911;28;20972;-71
2021/03/20 13:34:51;;;;;;;2.90;2.40;;;7.20;1.00;;;;;;5091385;28;20482;-71
2021/03/20 13:37:18;;;;;;;3.57;2.50;;;6.80;1.00;;;;;;5091909;28;20933;-70